Time;durP1;ratioP1;P1;durP2;ratioP2;P2;SDS_P1;SDS_P2;PMS_P1;PMS_P2;Temp;Humidity;BMP_temperature;BMP_pressure;BME280_temperature;BME280_humidity;BME280_pressure;Samples;Min_cycle;Max_cycle;Signal;HPM_P1;HPM_P2
2022/03/30 00:00:14;;;;;;;8.40;5.50;;;;;;;-2.00;62.56;97986.56;5048107;28;20032;-72
2022/03/30 00:02:39;;;;;;;7.65;4.65;;;;;;;-2.05;61.94;97983.34;5032066;28;20055;-71
2022/03/30 00:05:04;;;;;;;7.90;4.55;;;;;;;-2.05;62.59;97985.97;5051426;28;20045;-70
2022/03/30 00:07:31;;;;;;;7.65;4.97;;;;;;;-2.05;62.75;97989.44;5050109;28;20510;-71
2022/03/30 00:10:07;;;;;;;8.20;6.05;;;;;;;-2.12;63.12;97987.16;5029258;28;20120;-71
2022/03/30 00:12:33;;;;;;;7.00;5.15;;;;;;;-2.14;63.00;97991.63;5029887;28;20036;-72
2022/03/30 00:14:58;;;;;;;7.13;4.90;;;;;;;-2.07;63.47;97993.03;5048083;28;20044;-69
2022/03/30 00:17:23;;;;;;;8.15;5.18;;;;;;;-2.11;63.36;97996.69;5044697;28;20047;-69
2022/03/30 00:19:48;;;;;;;5.63;4.53;;;;;;;-2.03;63.80;97999.81;5029512;28;20088;-69
2022/03/30 00:22:13;;;;;;;7.90;4.90;;;;;;;-2.02;63.87;98004.06;5026246;28;20122;-69
2022/03/30 00:24:39;;;;;;;8.63;5.63;;;;;;;-2.16;64.16;97996.91;5009734;28;20041;-69
2022/03/30 00:27:05;;;;;;;7.70;5.30;;;;;;;-2.29;63.82;98006.22;5029686;28;20036;-67
2022/03/30 00:29:30;;;;;;;9.07;5.50;;;;;;;-2.24;63.40;98018.13;5055196;28;20036;-70
2022/03/30 00:31:55;;;;;;;6.35;4.55;;;;;;;-2.22;63.37;98008.47;5056884;28;20076;-71
2022/03/30 00:34:19;;;;;;;9.18;5.35;;;;;;;-2.20;63.71;98009.25;5049772;28;20048;-70
2022/03/30 00:36:44;;;;;;;9.07;4.68;;;;;;;-2.21;63.44;98014.53;5044612;28;20443;-70
2022/03/30 00:39:09;;;;;;;11.27;5.20;;;;;;;-2.25;63.12;98015.59;5047472;28;20461;-72
2022/03/30 00:41:34;;;;;;;7.20;4.70;;;;;;;-2.25;63.49;98016.44;5046720;28;20052;-72
2022/03/30 00:44:08;;;;;;;7.75;4.82;;;;;;;-2.24;63.92;98020.75;5030025;28;20131;-70
2022/03/30 00:46:33;;;;;;;10.75;5.35;;;;;;;-2.36;63.91;98020.44;5032016;28;20549;-70
2022/03/30 00:48:57;;;;;;;6.80;4.90;;;;;;;-2.33;64.20;98029.00;5051058;28;20079;-69
2022/03/30 00:51:22;;;;;;;9.70;4.90;;;;;;;-2.29;64.03;98029.72;5035754;28;20040;-72
2022/03/30 00:53:47;;;;;;;7.22;4.60;;;;;;;-2.27;63.93;98023.53;5053237;28;20133;-71
2022/03/30 00:56:12;;;;;;;7.32;5.07;;;;;;;-2.25;64.03;98020.81;5053305;28;20058;-73
2022/03/30 00:58:36;;;;;;;7.95;5.00;;;;;;;-2.29;63.94;98024.50;5053826;28;20040;-70
2022/03/30 01:01:02;;;;;;;7.78;4.93;;;;;;;-2.31;62.59;98035.00;5048756;28;20040;-72
2022/03/30 01:03:27;;;;;;;6.70;4.55;;;;;;;-2.33;62.78;98034.22;5045438;28;20036;-69
2022/03/30 01:05:52;;;;;;;5.75;4.30;;;;;;;-2.34;63.14;98023.84;5043238;28;20044;-73
2022/03/30 01:08:17;;;;;;;8.90;4.55;;;;;;;-2.34;63.13;98042.13;5028293;28;20438;-72
2022/03/30 01:10:42;;;;;;;5.18;3.85;;;;;;;-2.36;62.60;98050.00;5049714;28;20063;-72
2022/03/30 01:13:07;;;;;;;5.63;4.50;;;;;;;-2.40;63.03;98037.19;5033970;28;20923;-69
2022/03/30 01:15:33;;;;;;;6.53;4.20;;;;;;;-2.46;62.07;98040.91;5044642;28;20470;-69
2022/03/30 01:17:58;;;;;;;7.57;3.80;;;;;;;-2.48;62.23;98060.19;5045459;28;20131;-68
2022/03/30 01:20:23;;;;;;;6.22;4.03;;;;;;;-2.51;62.04;98039.44;5025726;28;20123;-71
2022/03/30 01:22:48;;;;;;;5.60;3.70;;;;;;;-2.52;62.05;98045.56;5045011;28;20123;-72
2022/03/30 01:25:13;;;;;;;6.20;3.97;;;;;;;-2.54;62.58;98050.00;5027164;28;20032;-72
2022/03/30 01:27:38;;;;;;;5.95;3.88;;;;;;;-2.54;62.88;98052.59;5037168;28;20093;-74
2022/03/30 01:32:55;;;;;;;8.52;4.53;;;;;;;-2.70;63.11;98055.88;5053047;28;20036;-72
2022/03/30 01:35:20;;;;;;;5.93;4.40;;;;;;;-2.66;63.60;98051.38;5043422;28;20040;-65
2022/03/30 01:37:45;;;;;;;7.30;4.20;;;;;;;-2.69;63.16;98054.97;5028209;28;20047;-67
2022/03/30 01:40:10;;;;;;;6.28;4.10;;;;;;;-2.72;63.02;98056.88;5044691;28;20044;-68
2022/03/30 01:42:36;;;;;;;5.72;4.18;;;;;;;-2.77;63.50;98064.03;5043537;28;20043;-69
2022/03/30 01:45:01;;;;;;;7.63;4.10;;;;;;;-2.80;63.64;98058.94;5027750;28;20624;-67
2022/03/30 01:47:28;;;;;;;8.23;5.18;;;;;;;-2.95;64.17;98076.13;5025867;28;20036;-64
2022/03/30 01:49:53;;;;;;;6.32;4.32;;;;;;;-3.00;64.32;98086.72;5043390;28;20059;-70
2022/03/30 01:52:18;;;;;;;5.68;4.32;;;;;;;-3.06;64.53;98075.72;5035324;28;20396;-69
2022/03/30 01:54:44;;;;;;;6.82;4.40;;;;;;;-3.09;64.71;98076.69;5035568;28;20127;-70
2022/03/30 01:57:12;;;;;;;8.00;4.78;;;;;;;-3.09;64.98;98075.84;5035554;28;20089;-69
2022/03/30 01:59:37;;;;;;;8.40;4.45;;;;;;;-3.14;65.32;98077.78;5022273;28;20036;-75
2022/03/30 02:02:02;;;;;;;6.63;3.92;;;;;;;-3.21;66.07;98081.56;5057033;28;20085;-75
2022/03/30 02:04:27;;;;;;;7.07;4.70;;;;;;;-3.21;66.29;98084.16;5057640;28;20097;-72
2022/03/30 02:06:52;;;;;;;8.10;4.60;;;;;;;-3.22;66.95;98082.47;5057772;28;20048;-72
2022/03/30 02:09:17;;;;;;;6.38;4.70;;;;;;;-3.18;66.46;98084.06;5057827;28;20044;-71
2022/03/30 02:11:43;;;;;;;5.95;4.15;;;;;;;-3.20;66.35;98091.94;5039618;28;20059;-71
2022/03/30 02:14:07;;;;;;;6.18;3.97;;;;;;;-3.16;65.91;98092.66;5056422;28;20147;-72
2022/03/30 02:16:32;;;;;;;6.72;4.57;;;;;;;-3.20;66.34;98089.31;5057075;28;20044;-72
2022/03/30 02:18:57;;;;;;;6.50;4.55;;;;;;;-3.18;66.25;98089.25;5056299;28;20078;-73
2022/03/30 02:21:24;;;;;;;8.15;4.32;;;;;;;-3.24;66.68;98092.09;5056826;28;20119;-72
2022/03/30 02:23:49;;;;;;;8.95;4.65;;;;;;;-3.37;66.62;98107.38;5057625;28;20044;-73
2022/03/30 02:26:15;;;;;;;8.85;5.75;;;;;;;-3.48;66.58;98106.97;5039335;28;20112;-72
2022/03/30 02:28:42;;;;;;;6.70;4.60;;;;;;;-3.40;67.16;98110.97;5057012;28;20048;-74
2022/03/30 02:31:07;;;;;;;6.65;4.25;;;;;;;-3.45;66.59;98105.09;5056948;28;20044;-72
2022/03/30 02:33:31;;;;;;;7.47;5.03;;;;;;;-3.51;66.66;98113.16;5057563;28;20043;-74
2022/03/30 02:35:56;;;;;;;8.07;4.43;;;;;;;-3.51;66.80;98123.59;5057596;28;20044;-73
2022/03/30 02:38:21;;;;;;;8.35;4.65;;;;;;;-3.60;66.45;98121.31;5057134;28;20414;-74
2022/03/30 02:40:46;;;;;;;6.78;3.92;;;;;;;-3.44;65.76;98132.84;5057425;28;20414;-74
2022/03/30 02:43:11;;;;;;;6.45;4.68;;;;;;;-3.51;65.42;98139.22;5039029;28;20485;-72
2022/03/30 02:45:38;;;;;;;6.75;3.83;;;;;;;-3.49;65.37;98137.38;5039044;28;20401;-73
2022/03/30 02:48:18;;;;;;;5.93;4.18;;;;;;;-3.41;64.82;98135.34;5057075;28;20113;-73
2022/03/30 02:50:53;;;;;;;7.95;4.10;;;;;;;-3.41;64.50;98140.53;5041491;28;20118;-73
2022/03/30 02:53:18;;;;;;;6.53;3.63;;;;;;;-3.31;63.92;98141.88;5060010;28;20076;-73
2022/03/30 02:55:43;;;;;;;6.50;4.70;;;;;;;-3.39;63.74;98151.75;5024172;28;20050;-76
2022/03/30 02:58:10;;;;;;;4.68;3.35;;;;;;;-3.23;64.26;98153.72;5057380;28;20035;-72
2022/03/30 03:00:35;;;;;;;5.22;3.65;;;;;;;-3.18;63.99;98155.25;5047894;28;20070;-72
2022/03/30 03:03:02;;;;;;;5.97;3.83;;;;;;;-3.14;63.71;98153.38;5060414;28;20036;-73
2022/03/30 03:05:32;;;;;;;4.68;3.58;;;;;;;-3.11;63.97;98158.47;5060489;28;20409;-72
2022/03/30 03:07:57;;;;;;;4.95;3.80;;;;;;;-3.11;63.74;98163.66;5071874;28;20107;-73
2022/03/30 03:10:21;;;;;;;6.18;4.47;;;;;;;-3.17;63.50;98158.72;5057952;28;20048;-75
2022/03/30 03:12:46;;;;;;;9.07;4.75;;;;;;;-3.32;62.67;98158.41;5063992;28;20044;-73
2022/03/30 03:15:11;;;;;;;6.28;4.20;;;;;;;-3.34;62.79;98152.41;5066825;28;20048;-67
2022/03/30 03:17:35;;;;;;;5.90;4.43;;;;;;;-3.37;63.18;98165.56;5071463;28;20073;-72
2022/03/30 03:20:00;;;;;;;8.18;5.47;;;;;;;-3.59;63.35;98163.84;5067477;28;20118;-73
2022/03/30 03:22:25;;;;;;;10.13;5.10;;;;;;;-3.69;63.89;98172.00;5066425;28;20036;-72
2022/03/30 03:24:50;;;;;;;8.70;5.43;;;;;;;-3.85;64.17;98170.06;5049602;28;20554;-77
2022/03/30 03:27:15;;;;;;;7.80;4.65;;;;;;;-3.90;64.61;98180.63;5059549;28;20043;-69
2022/03/30 03:29:39;;;;;;;6.50;4.65;;;;;;;-3.92;64.33;98176.38;5059435;28;20040;-72
2022/03/30 03:32:05;;;;;;;7.20;4.57;;;;;;;-4.03;65.01;98180.22;5040833;28;20044;-74
2022/03/30 03:34:30;;;;;;;6.22;4.25;;;;;;;-4.10;65.27;98188.31;5041886;28;20075;-74
2022/03/30 03:36:54;;;;;;;8.93;5.45;;;;;;;-4.14;65.19;98192.78;5059406;28;20075;-73
2022/03/30 03:39:19;;;;;;;6.38;4.22;;;;;;;-4.14;65.24;98191.91;5059369;28;20643;-74
2022/03/30 03:41:44;;;;;;;10.02;4.85;;;;;;;-4.14;65.26;98195.38;5058697;28;20146;-71
2022/03/30 03:44:09;;;;;;;7.72;4.78;;;;;;;-4.14;64.78;98216.19;5058266;28;20040;-78
2022/03/30 03:46:34;;;;;;;7.47;4.60;;;;;;;-4.16;65.32;98197.16;5043555;28;20139;-76
2022/03/30 03:48:58;;;;;;;7.55;4.63;;;;;;;-4.10;65.75;98207.38;5061623;28;20082;-71
2022/03/30 03:51:23;;;;;;;8.32;4.97;;;;;;;-3.95;66.09;98210.34;5058132;28;20040;-72
2022/03/30 03:53:48;;;;;;;8.38;4.60;;;;;;;-3.68;65.95;98211.91;5057158;28;20075;-73
2022/03/30 03:56:13;;;;;;;7.15;5.15;;;;;;;-3.38;64.14;98221.16;5057880;28;20044;-72
2022/03/30 03:58:38;;;;;;;6.55;4.15;;;;;;;-3.10;63.20;98214.91;5057037;28;20082;-72
2022/03/30 04:01:02;;;;;;;7.60;5.30;;;;;;;-2.99;62.47;98224.00;5040375;28;20044;-72
2022/03/30 04:03:27;;;;;;;6.47;4.25;;;;;;;-3.01;61.59;98230.16;5061358;28;20048;-73
2022/03/30 04:05:52;;;;;;;10.48;4.80;;;;;;;-3.05;61.43;98233.81;5040434;28;20048;-71
2022/03/30 04:08:17;;;;;;;6.43;4.10;;;;;;;-3.10;61.67;98231.38;5058307;28;20092;-72
2022/03/30 04:10:42;;;;;;;4.78;3.60;;;;;;;-3.17;61.89;98231.69;5056388;28;20417;-71
2022/03/30 04:13:07;;;;;;;8.57;4.57;;;;;;;-3.40;62.05;98238.63;5040260;28;20051;-73
2022/03/30 04:15:34;;;;;;;6.88;3.60;;;;;;;-3.38;62.51;98256.78;5039948;28;20077;-72
2022/03/30 04:17:59;;;;;;;9.45;4.93;;;;;;;-3.55;62.79;98244.41;5057797;28;20409;-71
2022/03/30 04:20:23;;;;;;;6.70;4.85;;;;;;;-3.57;63.42;98254.03;5058058;28;20485;-72
2022/03/30 04:22:48;;;;;;;5.13;3.95;;;;;;;-3.43;63.39;98259.59;5057877;28;20055;-71
2022/03/30 04:25:13;;;;;;;5.75;3.70;;;;;;;-3.23;63.38;98247.56;5039712;28;20043;-71
2022/03/30 04:27:49;;;;;;;6.93;4.18;;;;;;;-3.14;62.41;98249.78;5040036;28;20047;-72
2022/03/30 04:30:16;;;;;;;5.30;3.60;;;;;;;-3.05;62.18;98246.84;5058294;28;20056;-71
2022/03/30 04:32:41;;;;;;;5.53;3.83;;;;;;;-2.91;62.83;98252.34;5056015;28;20067;-72
2022/03/30 04:35:06;;;;;;;4.22;3.25;;;;;;;-2.46;61.56;98261.84;5056408;28;20104;-72
2022/03/30 04:37:31;;;;;;;3.65;3.25;;;;;;;-1.97;60.73;98258.00;5057730;28;20039;-72
2022/03/30 04:39:56;;;;;;;3.38;3.05;;;;;;;-1.54;58.84;98256.97;5055904;28;20561;-72
2022/03/30 04:42:21;;;;;;;4.43;3.30;;;;;;;-1.15;56.82;98254.31;5057067;28;20039;-73
2022/03/30 04:44:46;;;;;;;5.35;3.30;;;;;;;-0.76;55.63;98249.78;5056644;28;20043;-72
2022/03/30 04:47:11;;;;;;;6.30;3.42;;;;;;;-0.28;54.67;98252.72;5038426;28;20070;-72
2022/03/30 04:49:36;;;;;;;6.85;3.15;;;;;;;0.06;53.10;98257.09;5038887;28;20087;-73
2022/03/30 04:52:01;;;;;;;5.32;3.70;;;;;;;0.18;52.02;98262.56;5055478;28;20036;-72
2022/03/30 04:54:26;;;;;;;4.95;3.15;;;;;;;0.25;52.33;98263.06;5057671;28;20529;-72
2022/03/30 04:56:51;;;;;;;5.25;3.25;;;;;;;0.15;51.42;98272.34;5038750;28;20047;-73
2022/03/30 04:59:16;;;;;;;5.50;3.38;;;;;;;0.15;53.08;98269.72;5039234;28;20039;-73
2022/03/30 05:01:41;;;;;;;9.70;3.60;;;;;;;0.09;52.78;98272.66;5055859;28;20032;-72
2022/03/30 05:04:07;;;;;;;6.22;3.50;;;;;;;0.20;53.51;98273.81;5057223;28;20036;-73
2022/03/30 05:06:32;;;;;;;5.28;4.20;;;;;;;0.01;51.75;98275.66;5039102;28;20074;-73
2022/03/30 05:08:56;;;;;;;5.80;3.53;;;;;;;-0.28;53.27;98271.88;5056722;28;20121;-73
2022/03/30 05:11:21;;;;;;;3.78;3.22;;;;;;;-0.30;54.03;98278.97;5038683;28;20044;-71
2022/03/30 05:13:46;;;;;;;4.22;3.00;;;;;;;-0.13;53.51;98283.38;5056784;28;20363;-71
2022/03/30 05:16:12;;;;;;;4.63;4.00;;;;;;;0.10;52.42;98284.84;5066245;28;20071;-73
2022/03/30 05:18:36;;;;;;;3.28;2.97;;;;;;;0.49;51.64;98288.00;5060945;28;20040;-73
2022/03/30 05:21:02;;;;;;;7.78;3.95;;;;;;;0.84;50.10;98301.03;5057320;28;20046;-72
2022/03/30 05:23:26;;;;;;;5.93;3.47;;;;;;;1.21;49.51;98292.00;5037332;28;20043;-72
2022/03/30 05:25:51;;;;;;;4.00;3.33;;;;;;;1.81;49.51;98298.19;5021209;28;20046;-72
2022/03/30 05:28:16;;;;;;;4.15;3.28;;;;;;;2.40;48.62;98299.94;5056327;28;20044;-72
2022/03/30 05:30:40;;;;;;;5.53;4.15;;;;;;;2.98;45.92;98299.03;5055949;28;20040;-74
2022/03/30 05:33:05;;;;;;;5.95;4.13;;;;;;;3.39;43.81;98304.31;5055827;28;20428;-72
2022/03/30 05:35:30;;;;;;;7.40;3.70;;;;;;;3.70;43.27;98315.53;5056458;28;20071;-73
2022/03/30 05:37:55;;;;;;;4.78;3.55;;;;;;;3.45;42.14;98316.25;5057030;28;20485;-72
2022/03/30 05:40:20;;;;;;;3.60;2.83;;;;;;;4.06;42.72;98313.13;5055836;28;20092;-72
2022/03/30 05:42:46;;;;;;;4.97;3.45;;;;;;;4.88;41.67;98309.28;5038276;28;20039;-72
2022/03/30 05:45:11;;;;;;;3.35;3.05;;;;;;;4.76;39.79;98305.69;5038017;28;20409;-72
2022/03/30 05:47:37;;;;;;;4.47;3.53;;;;;;;4.42;38.95;98304.53;5038126;28;20048;-72
2022/03/30 05:50:03;;;;;;;4.72;3.35;;;;;;;3.87;40.34;98324.03;5055725;28;20048;-72
2022/03/30 05:52:28;;;;;;;4.57;3.38;;;;;;;3.33;41.14;98327.56;5037803;28;20043;-73
2022/03/30 05:54:52;;;;;;;4.85;3.38;;;;;;;3.18;41.18;98324.94;5054557;28;20054;-73
2022/03/30 05:57:21;;;;;;;3.15;2.45;;;;;;;3.36;41.21;98327.38;5055912;28;20040;-72
2022/03/30 05:59:45;;;;;;;3.63;2.75;;;;;;;4.37;39.91;98319.84;5061618;28;20494;-71
2022/03/30 06:02:12;;;;;;;3.53;3.22;;;;;;;4.73;37.85;98324.41;5059941;28;20521;-73
2022/03/30 06:04:38;;;;;;;3.65;3.05;;;;;;;5.40;37.56;98333.75;5059657;28;20046;-72
2022/03/30 06:07:03;;;;;;;7.25;3.25;;;;;;;6.39;36.83;98325.63;5056041;28;20036;-71
2022/03/30 06:09:29;;;;;;;4.38;3.38;;;;;;;6.51;34.12;98320.25;5055625;28;20050;-72
2022/03/30 06:11:54;;;;;;;5.47;2.95;;;;;;;7.62;33.88;98324.72;5037246;28;20047;-72
2022/03/30 06:14:20;;;;;;;3.15;2.63;;;;;;;9.03;32.15;98322.66;5037475;28;20040;-72
2022/03/30 06:16:45;;;;;;;2.33;1.88;;;;;;;10.57;29.42;98318.69;5055982;28;20093;-73
2022/03/30 06:19:10;;;;;;;3.20;2.45;;;;;;;11.33;28.01;98328.31;5036664;28;20401;-73
2022/03/30 06:21:36;;;;;;;7.45;3.10;;;;;;;11.97;27.96;98327.44;5037550;28;20040;-72
2022/03/30 06:24:01;;;;;;;4.85;3.15;;;;;;;11.81;25.72;98328.13;5037387;28;20047;-71
2022/03/30 06:26:26;;;;;;;4.25;3.17;;;;;;;11.29;26.68;98332.25;5055227;28;20474;-73
2022/03/30 06:28:51;;;;;;;4.63;2.92;;;;;;;9.94;27.13;98332.34;5037253;28;20485;-71
2022/03/30 06:31:17;;;;;;;5.30;2.30;;;;;;;9.89;26.92;98339.94;5054214;28;20097;-72
2022/03/30 06:33:42;;;;;;;3.97;2.63;;;;;;;10.22;25.44;98343.22;5021404;28;20047;-73
2022/03/30 06:36:07;;;;;;;4.63;2.88;;;;;;;10.53;26.30;98342.94;5041014;28;20042;-72
2022/03/30 06:38:31;;;;;;;3.80;2.58;;;;;;;10.62;27.32;98353.72;5024969;28;20048;-73
2022/03/30 06:40:56;;;;;;;2.53;2.33;;;;;;;9.98;27.37;98355.06;5041361;28;20096;-72
2022/03/30 06:43:21;;;;;;;4.55;2.63;;;;;;;9.46;27.52;98353.53;5041592;28;20131;-72
2022/03/30 06:45:46;;;;;;;4.03;2.53;;;;;;;9.88;27.84;98353.38;5059178;28;20126;-71
2022/03/30 06:48:11;;;;;;;3.53;3.10;;;;;;;10.35;27.12;98367.78;5058078;28;20044;-71
2022/03/30 06:50:36;;;;;;;6.40;3.38;;;;;;;10.64;26.82;98367.75;5041190;28;20048;-71
2022/03/30 06:53:01;;;;;;;3.28;2.50;;;;;;;10.20;27.73;98370.00;5059544;28;20178;-71
2022/03/30 06:55:26;;;;;;;5.38;3.00;;;;;;;9.32;26.72;98370.69;5041991;28;20040;-71
2022/03/30 06:57:51;;;;;;;4.07;3.00;;;;;;;8.79;27.90;98374.44;5060046;28;20509;-73
2022/03/30 07:00:17;;;;;;;3.00;2.70;;;;;;;8.89;28.66;98375.34;5059849;28;20406;-73
2022/03/30 07:02:43;;;;;;;2.65;2.45;;;;;;;8.86;26.70;98391.53;5041411;28;20054;-74
2022/03/30 07:05:08;;;;;;;7.15;2.65;;;;;;;8.61;26.67;98379.44;5059456;28;20496;-71
2022/03/30 07:10:23;;;;;;;3.53;2.65;;;;;;;7.96;27.80;98391.84;5041056;28;20036;-72
2022/03/30 07:12:50;;;;;;;9.38;3.15;;;;;;;8.49;27.82;98386.63;5057717;28;20055;-72
2022/03/30 07:15:16;;;;;;;2.22;1.98;;;;;;;10.25;25.18;98394.41;5058757;28;20089;-72
2022/03/30 07:17:52;;;;;;;4.75;2.25;;;;;;;11.98;22.62;98398.56;5040710;28;20212;-72
2022/03/30 07:20:19;;;;;;;4.53;2.45;;;;;;;11.39;22.60;98405.13;5061388;28;20494;-73
2022/03/30 07:22:44;;;;;;;2.55;2.08;;;;;;;11.47;23.41;98404.41;5059318;28;20044;-71
2022/03/30 07:25:10;;;;;;;3.53;2.20;;;;;;;11.81;23.85;98418.06;5059516;28;20035;-73
2022/03/30 07:27:43;;;;;;;3.13;1.92;;;;;;;13.26;21.68;98401.84;5041074;28;20048;-72
2022/03/30 07:30:09;;;;;;;5.40;2.40;;;;;;;14.50;20.73;98401.25;5058747;28;20127;-72
2022/03/30 07:32:35;;;;;;;7.13;3.30;;;;;;;14.39;20.69;98409.59;5058170;28;20044;-72
2022/03/30 07:35:00;;;;;;;3.78;2.85;;;;;;;13.93;19.41;98409.09;5040482;28;20040;-73
2022/03/30 07:37:25;;;;;;;3.08;2.47;;;;;;;12.66;21.02;98412.34;5040832;28;20039;-71
2022/03/30 07:39:50;;;;;;;2.63;2.42;;;;;;;11.40;22.45;98419.31;5059078;28;20506;-73
2022/03/30 07:42:15;;;;;;;2.65;2.25;;;;;;;12.56;22.27;98419.59;5058551;28;20445;-73
2022/03/30 07:44:40;;;;;;;3.72;3.08;;;;;;;14.44;21.39;98426.06;5058645;28;20448;-73
2022/03/30 07:47:05;;;;;;;4.25;2.78;;;;;;;15.70;19.67;98419.38;5057733;28;20044;-72
2022/03/30 07:49:29;;;;;;;5.03;2.90;;;;;;;16.86;18.37;98423.91;5040763;28;20474;-73
2022/03/30 07:51:54;;;;;;;2.50;1.75;;;;;;;18.46;17.33;98418.91;5058866;28;20136;-76
2022/03/30 07:54:19;;;;;;;3.08;2.17;;;;;;;19.69;15.76;98426.78;5059989;28;20036;-75
2022/03/30 07:56:44;;;;;;;3.10;2.53;;;;;;;18.94;16.16;98421.13;5041920;28;20043;-77
2022/03/30 07:59:09;;;;;;;3.63;2.13;;;;;;;16.43;17.61;98425.31;5039921;28;20043;-77
2022/03/30 08:01:33;;;;;;;3.33;2.22;;;;;;;14.67;18.66;98428.97;5040560;28;20737;-74
2022/03/30 08:03:58;;;;;;;4.88;2.47;;;;;;;13.85;19.87;98427.81;5060242;28;20078;-76
2022/03/30 08:06:23;;;;;;;2.83;2.53;;;;;;;13.09;19.26;98449.03;5044388;28;20055;-76
2022/03/30 08:08:48;;;;;;;3.65;2.67;;;;;;;14.07;19.89;98437.97;5026692;28;20048;-74
2022/03/30 08:11:13;;;;;;;2.95;2.35;;;;;;;14.67;19.05;98437.00;5060068;28;20079;-75
2022/03/30 08:13:38;;;;;;;4.43;3.22;;;;;;;13.74;19.42;98438.81;5059218;28;20113;-74
2022/03/30 08:16:03;;;;;;;3.33;2.20;;;;;;;13.08;20.44;98440.16;5024904;28;20081;-73
2022/03/30 08:18:28;;;;;;;5.10;2.72;;;;;;;11.57;21.66;98443.41;5040915;28;20075;-74
2022/03/30 08:23:36;;;;;;;2.80;2.60;;;;;;;8.75;24.94;98445.56;5040127;28;20268;-72
2022/03/30 08:26:01;;;;;;;1.83;1.73;;;;;;;8.08;24.88;98451.06;5022411;28;20521;-72
2022/03/30 08:28:27;;;;;;;6.18;2.72;;;;;;;9.15;25.40;98447.53;5039115;28;20043;-71
2022/03/30 08:30:52;;;;;;;3.33;2.30;;;;;;;11.51;23.17;98443.16;5038556;28;20125;-73
2022/03/30 08:33:21;;;;;;;5.15;2.63;;;;;;;13.71;20.58;98429.22;5056040;28;20044;-72
2022/03/30 08:35:46;;;;;;;3.60;2.60;;;;;;;14.63;19.17;98431.13;4994556;28;20096;-74
2022/03/30 08:38:11;;;;;;;3.22;1.88;;;;;;;15.73;18.45;98419.03;4978269;28;20053;-72
2022/03/30 08:40:37;;;;;;;3.00;1.88;;;;;;;15.81;17.79;98437.81;4961730;28;20053;-74
2022/03/30 08:43:03;;;;;;;4.28;2.55;;;;;;;16.01;17.36;98439.13;4995531;28;20503;-72
2022/03/30 08:45:27;;;;;;;1.88;1.77;;;;;;;15.54;17.71;98442.59;4962087;28;20041;-74
2022/03/30 08:47:53;;;;;;;2.53;2.05;;;;;;;15.97;17.07;98440.47;4995187;28;20072;-74
2022/03/30 08:50:19;;;;;;;1.88;1.75;;;;;;;17.11;16.57;98431.81;4978241;28;20041;-75
2022/03/30 08:52:47;;;;;;;2.92;2.22;;;;;;;18.40;15.40;98435.84;4994723;28;20041;-74
2022/03/30 08:55:12;;;;;;;3.38;2.42;;;;;;;20.46;14.78;98439.34;4978457;28;20056;-74
2022/03/30 08:57:38;;;;;;;2.35;2.05;;;;;;;20.97;14.38;98437.00;4993694;28;20052;-75
2022/03/30 09:00:18;;;;;;;3.88;2.47;;;;;;;20.83;14.62;98446.97;4977935;28;20053;-74
2022/03/30 09:02:45;;;;;;;2.63;2.42;;;;;;;21.57;14.48;98443.34;4994351;28;20103;-73
2022/03/30 09:05:21;;;;;;;4.63;3.25;;;;;;;23.00;13.81;98442.38;4994759;28;20045;-75
2022/03/30 09:07:49;;;;;;;4.82;2.80;;;;;;;23.05;12.26;98443.34;4978156;28;20099;-73
2022/03/30 09:10:19;;;;;;;3.10;2.63;;;;;;;23.89;12.76;98445.69;4962088;28;20049;-75
2022/03/30 09:12:46;;;;;;;3.92;2.42;;;;;;;23.90;12.27;98454.69;4996184;28;20048;-75
2022/03/30 09:15:12;;;;;;;3.10;2.80;;;;;;;22.45;13.10;98444.69;5039042;28;20055;-74
2022/03/30 09:17:38;;;;;;;3.22;2.92;;;;;;;20.19;14.40;98451.88;5039951;28;20402;-74
2022/03/30 09:20:04;;;;;;;3.45;2.58;;;;;;;18.89;14.37;98446.00;5058277;28;20462;-73
2022/03/30 09:22:31;;;;;;;4.10;2.63;;;;;;;17.50;15.51;98445.09;5045812;28;20093;-73
2022/03/30 09:24:55;;;;;;;3.85;3.35;;;;;;;15.09;17.26;98447.63;5063603;28;20051;-74
2022/03/30 09:27:23;;;;;;;3.10;2.67;;;;;;;13.64;17.92;98451.47;5061672;28;20040;-73
2022/03/30 09:29:48;;;;;;;4.10;2.97;;;;;;;12.72;19.46;98452.69;5066872;28;20075;-77
2022/03/30 09:32:13;;;;;;;4.85;3.03;;;;;;;11.01;20.60;98451.38;5058048;28;20039;-73
2022/03/30 09:34:49;;;;;;;3.03;2.60;;;;;;;9.69;22.65;98456.13;5056786;28;20051;-73
2022/03/30 09:37:15;;;;;;;3.45;2.63;;;;;;;8.95;23.52;98459.84;5056143;28;20184;-72
2022/03/30 09:39:41;;;;;;;4.10;2.97;;;;;;;8.50;24.15;98459.19;5037788;28;20052;-74
2022/03/30 09:42:08;;;;;;;6.82;3.20;;;;;;;7.89;25.73;98462.31;5056031;28;20044;-72
2022/03/30 09:44:45;;;;;;;3.88;2.90;;;;;;;7.41;25.74;98464.31;5056258;28;20117;-72
2022/03/30 09:47:10;;;;;;;3.63;2.90;;;;;;;6.72;26.87;98471.38;5055968;28;20048;-70
2022/03/30 09:49:45;;;;;;;3.10;2.75;;;;;;;6.70;27.36;98461.84;5038033;28;20051;-73
2022/03/30 09:52:30;;;;;;;3.85;3.42;;;;;;;6.60;27.40;98472.28;5038610;28;20122;-73
2022/03/30 09:54:57;;;;;;;3.70;2.90;;;;;;;5.98;27.44;98464.44;5057509;28;20052;-75
2022/03/30 09:57:27;;;;;;;6.38;3.13;;;;;;;5.70;27.80;98468.19;5058080;28;20420;-73
2022/03/30 10:00:02;;;;;;;5.45;2.55;;;;;;;5.60;28.46;98469.78;5039536;28;20420;-75
2022/03/30 10:02:51;;;;;;;8.00;3.55;;;;;;;5.45;28.42;98476.97;5038841;28;20521;-73
2022/03/30 10:05:18;;;;;;;2.20;1.98;;;;;;;5.26;28.04;98470.41;5038374;28;20108;-73
2022/03/30 10:07:45;;;;;;;4.25;2.42;;;;;;;5.07;29.12;98466.41;5021088;28;20040;-72
2022/03/30 10:10:12;;;;;;;3.38;2.55;;;;;;;4.74;29.67;98476.56;5055306;28;20050;-71
2022/03/30 10:12:37;;;;;;;3.50;2.25;;;;;;;4.50;30.15;98481.69;5037367;28;20044;-75
2022/03/30 10:15:03;;;;;;;5.70;2.47;;;;;;;4.46;30.72;98481.97;5056087;28;20044;-72
2022/03/30 10:17:32;;;;;;;4.72;2.25;;;;;;;4.23;30.78;98483.47;5055806;28;20063;-72
2022/03/30 10:19:58;;;;;;;3.83;2.88;;;;;;;3.93;32.00;98492.38;5055742;28;20079;-72
2022/03/30 10:22:35;;;;;;;4.88;2.55;;;;;;;3.92;31.72;98488.06;5036570;28;20494;-74
2022/03/30 10:25:18;;;;;;;2.45;1.83;;;;;;;4.35;31.55;98480.03;5055039;28;20094;-74
2022/03/30 10:27:53;;;;;;;8.90;2.25;;;;;;;4.85;30.29;98476.72;5055424;28;20040;-74
2022/03/30 10:30:26;;;;;;;3.75;2.08;;;;;;;5.22;29.07;98469.78;5038036;28;20040;-74
2022/03/30 10:33:00;;;;;;;2.20;1.88;;;;;;;5.36;28.61;98474.97;5038355;28;20039;-75
2022/03/30 10:35:40;;;;;;;5.93;2.40;;;;;;;5.48;29.37;98476.75;5037883;28;20070;-74
2022/03/30 10:38:05;;;;;;;5.28;2.42;;;;;;;5.25;29.54;98480.16;5037987;28;20158;-74
2022/03/30 10:40:29;;;;;;;6.85;2.55;;;;;;;5.15;29.61;98471.16;5020728;28;20143;-73
2022/03/30 10:42:57;;;;;;;5.95;2.17;;;;;;;5.24;29.83;98461.75;5055418;28;20151;-73
2022/03/30 10:45:28;;;;;;;3.90;1.58;;;;;;;5.08;27.84;98472.50;5036911;28;20495;-71
2022/03/30 10:48:21;;;;;;;2.05;1.88;;;;;;;5.04;28.02;98468.41;5054948;28;20048;-72
2022/03/30 10:50:54;;;;;;;4.03;2.20;;;;;;;5.07;28.70;98468.19;5053533;28;20405;-73
2022/03/30 10:53:30;;;;;;;5.78;3.10;;;;;;;5.17;28.50;98471.91;5054673;28;20052;-72
2022/03/30 10:56:15;;;;;;;5.63;2.33;;;;;;;5.13;29.43;98470.41;5020493;28;20071;-73
2022/03/30 10:58:49;;;;;;;4.30;2.45;;;;;;;4.89;28.96;98478.19;5055301;28;20044;-79
2022/03/30 11:01:34;;;;;;;3.58;2.53;;;;;;;4.94;29.78;98470.81;5060012;28;20040;-79
2022/03/30 11:04:00;;;;;;;;;;;;;;;5.37;30.07;98471.38;5055851;28;20529;-72
2022/03/30 11:06:26;;;;;;;3.63;2.25;;;;;;;5.30;29.95;98467.47;5055577;28;19916;-72
2022/03/30 11:08:53;;;;;;;2.97;2.63;;;;;;;5.21;29.56;98478.66;5035703;28;20047;-72
2022/03/30 11:11:27;;;;;;;5.30;2.38;;;;;;;5.13;29.80;98474.84;5055530;28;20516;-71
2022/03/30 11:14:25;;;;;;;3.40;2.58;;;;;;;4.94;29.82;98473.47;5055500;28;20101;-72
2022/03/30 11:17:01;;;;;;;3.40;2.30;;;;;;;4.41;29.40;98476.97;5054877;28;20036;-71
2022/03/30 11:19:31;;;;;;;4.30;2.28;;;;;;;4.14;29.83;98478.78;5046539;28;20051;-76
2022/03/30 11:22:09;;;;;;;2.20;1.90;;;;;;;3.93;29.18;98481.00;5044626;28;20104;-75
2022/03/30 11:24:33;;;;;;;4.97;2.75;;;;;;;3.97;30.14;98482.47;5054532;28;20044;-73
2022/03/30 11:26:58;;;;;;;5.03;1.98;;;;;;;3.74;29.77;98476.00;5058161;28;20047;-73
2022/03/30 11:29:41;;;;;;;2.40;1.88;;;;;;;3.93;29.12;98481.84;5057482;28;20051;-74
2022/03/30 11:32:24;;;;;;;6.85;3.50;;;;;;;3.98;28.11;98479.75;5018959;28;20131;-71
2022/03/30 11:34:54;;;;;;;2.88;2.15;;;;;;;3.95;29.17;98484.38;5004792;28;20068;-72
2022/03/30 11:37:35;;;;;;;3.80;1.88;;;;;;;3.81;28.04;98479.13;5003945;28;20048;-74
2022/03/30 11:40:12;;;;;;;4.80;2.13;;;;;;;3.40;27.95;98485.13;5037982;28;20079;-70
2022/03/30 11:42:40;;;;;;;3.25;1.67;;;;;;;3.51;30.14;98481.84;5036599;28;20079;-73